EDLP/PAD METAR and TAF weather

Enter ICAO airport designator
Station Type Date Time Source
EDLP METAR 2018/07/21 03:50 UTC NOAA

EDLP 210350Z VRB02KT CAVOK 18/11 Q1011


Station Type Date Time Source
EDLP Decoded METAR 2018/07/21 03:50 UTC NOAA

Paderborn / Lippstadt, Germany (EDLP) 51-37N 008-37E
Jul 20, 2018 - 11:50 PM EDT / 2018.07.21 0350 UTC
Wind: Variable at 2 MPH (2 KT):0
Visibility: greater than 7 mile(s):0
Temperature: 64 F (18 C)
Dew Point: 51 F (11 C)
Relative Humidity: 63%
Pressure (altimeter): 29.85 in. Hg (1011 hPa)
ob: EDLP 210350Z VRB02KT CAVOK 18/11 Q1011
cycle: 4

Station Type Date Time Source
EDLP TAF 2018/07/20 18:29 UTC NOAA

TAF EDLP 201700Z 2018/2118 14005KT CAVOK
TEMPO 2018/2106 VRB03KT
BECMG 2106/2109 30005KT PROB30
TEMPO 2112/2118 22010KT SHRA SCT050CB
BECMG 2113/2115 20004KT


Example: see airport list